createdAt,value
2017-10-23T00:00:49.932Z,8.6
2017-10-23T00:01:49.975Z,8.67
2017-10-23T00:02:49.971Z,8.78
2017-10-23T00:03:49.979Z,8.85
2017-10-23T00:04:50.008Z,8.88
2017-10-23T00:05:50.021Z,8.99
2017-10-23T00:06:50.038Z,8.99
2017-10-23T00:07:50.105Z,8.97
2017-10-23T00:08:50.075Z,8.95
2017-10-23T00:09:50.092Z,8.79
2017-10-23T00:10:50.121Z,8.82
2017-10-23T00:11:50.130Z,8.79
2017-10-23T00:12:50.147Z,8.82
2017-10-23T00:13:50.162Z,8.87
2017-10-23T00:14:50.504Z,8.78
2017-10-23T00:15:50.193Z,8.91
2017-10-23T00:16:50.211Z,8.84
2017-10-23T00:17:50.224Z,8.85
2017-10-23T00:18:50.245Z,8.84
2017-10-23T00:19:50.262Z,8.73
2017-10-23T00:20:50.271Z,8.82
2017-10-23T00:21:50.622Z,8.84
2017-10-23T00:22:50.656Z,9
2017-10-23T00:23:50.380Z,9.08
2017-10-23T00:24:50.363Z,8.97
2017-10-23T00:25:50.368Z,9.1
2017-10-23T00:26:50.381Z,9.04
2017-10-23T00:27:50.403Z,8.99
2017-10-23T00:28:50.414Z,8.85
2017-10-23T00:29:50.429Z,8.81
2017-10-23T00:30:50.782Z,8.81
2017-10-23T00:31:50.471Z,8.69
2017-10-23T00:32:50.496Z,8.7
2017-10-23T00:33:50.506Z,8.82
2017-10-23T00:34:50.517Z,8.81
2017-10-23T00:35:50.876Z,8.82
2017-10-23T00:36:50.568Z,9.04
2017-10-23T00:37:50.897Z,8.97
2017-10-23T00:38:50.642Z,9
2017-10-23T00:39:50.602Z,8.97
2017-10-23T00:40:50.617Z,8.97
2017-10-23T00:41:50.637Z,8.95
2017-10-23T00:42:50.648Z,9.08
2017-10-23T00:43:50.671Z,9.13
2017-10-23T00:44:50.689Z,9.03
2017-10-23T00:45:50.710Z,9.04
2017-10-23T00:46:50.720Z,9.1
2017-10-23T00:47:50.756Z,9.11
2017-10-23T00:48:50.760Z,9
2017-10-23T00:49:50.781Z,8.92
2017-10-23T00:50:50.786Z,9.1
2017-10-23T00:51:50.812Z,9.1
2017-10-23T00:52:50.828Z,9.04
2017-10-23T00:53:50.864Z,9.26
2017-10-23T00:54:50.866Z,9.16
2017-10-23T00:55:50.926Z,9.1
2017-10-23T00:56:50.899Z,8.97
2017-10-23T00:57:50.912Z,9.08
2017-10-23T00:58:50.933Z,9.1
2017-10-23T00:59:50.949Z,9.08
2017-10-23T01:00:50.976Z,9.16
2017-10-23T01:01:50.999Z,9.19
2017-10-23T01:02:50.994Z,9.08
2017-10-23T01:03:51.014Z,9.02
2017-10-23T01:04:51.045Z,8.92
2017-10-23T01:05:51.050Z,8.84
2017-10-23T01:06:51.079Z,8.76
2017-10-23T01:07:51.413Z,8.85
2017-10-23T01:08:51.103Z,9.02
2017-10-23T01:09:51.437Z,9.1
2017-10-23T01:10:51.140Z,8.99
2017-10-23T01:11:51.150Z,8.87
2017-10-23T01:12:51.173Z,8.92
2017-10-23T01:13:51.199Z,8.97
2017-10-23T01:14:51.202Z,8.92
2017-10-23T01:15:51.578Z,8.74
2017-10-23T01:16:51.240Z,8.79
2017-10-23T01:17:51.265Z,8.84
2017-10-23T01:18:51.602Z,8.81
2017-10-23T01:19:51.291Z,8.88
2017-10-23T01:20:51.310Z,8.91
2017-10-23T01:21:51.325Z,8.95
2017-10-23T01:22:51.339Z,8.78
2017-10-23T01:23:51.363Z,8.94
2017-10-23T01:24:51.713Z,8.92
2017-10-23T01:25:51.728Z,8.78
2017-10-23T01:26:51.731Z,8.82
2017-10-23T01:27:51.438Z,9.04
2017-10-23T01:28:51.444Z,9
2017-10-23T01:29:51.788Z,8.81
2017-10-23T01:30:51.693Z,8.79
2017-10-23T01:31:52.524Z,8.91
2017-10-23T01:32:51.516Z,8.99
2017-10-23T01:33:51.532Z,8.92
2017-10-23T01:34:51.550Z,8.84
2017-10-23T01:35:51.572Z,8.7
2017-10-23T01:36:51.580Z,8.81
2017-10-23T01:37:51.933Z,8.71
2017-10-23T01:38:51.640Z,8.66
2017-10-23T01:39:51.634Z,8.74
2017-10-23T01:40:51.649Z,8.79
2017-10-23T01:41:52.001Z,8.85
2017-10-23T01:42:52.006Z,8.81
2017-10-23T01:43:51.709Z,8.76
2017-10-23T01:44:51.721Z,8.94
2017-10-23T01:45:51.786Z,8.88
2017-10-23T01:46:51.758Z,8.76
2017-10-23T01:47:51.771Z,8.76
2017-10-23T01:48:51.787Z,8.78
2017-10-23T01:49:51.810Z,8.91
2017-10-23T01:50:51.821Z,8.94
2017-10-23T01:51:51.835Z,8.95
2017-10-23T01:52:51.881Z,9.03
2017-10-23T01:53:51.884Z,8.97
2017-10-23T01:54:51.890Z,8.94
2017-10-23T01:55:51.912Z,9.08
2017-10-23T01:56:51.924Z,9
2017-10-23T01:57:51.951Z,9.02
2017-10-23T01:58:51.957Z,9.08
2017-10-23T01:59:51.983Z,8.99
2017-10-23T02:00:51.997Z,9
2017-10-23T02:01:52.335Z,8.76
2017-10-23T02:02:52.349Z,8.66
2017-10-23T02:03:52.372Z,8.81
2017-10-23T02:04:52.072Z,8.76
2017-10-23T02:05:52.408Z,8.81
2017-10-23T02:06:52.102Z,8.74
2017-10-23T02:07:52.119Z,8.74
2017-10-23T02:08:52.136Z,8.73
2017-10-23T02:09:52.153Z,8.76
2017-10-23T02:10:52.176Z,8.84
2017-10-23T02:11:52.186Z,8.99
2017-10-23T02:12:52.205Z,8.89
2017-10-23T02:13:52.214Z,8.89
2017-10-23T02:14:52.235Z,8.94
2017-10-23T02:15:52.271Z,8.78
2017-10-23T02:16:52.270Z,8.99
2017-10-23T02:17:52.282Z,8.91
2017-10-23T02:18:52.309Z,8.81
2017-10-23T02:19:52.328Z,8.97
2017-10-23T02:20:52.337Z,9.02
2017-10-23T02:21:52.404Z,8.99
2017-10-23T02:22:52.375Z,9.02
2017-10-23T02:23:52.393Z,8.78
2017-10-23T02:24:52.402Z,8.84
2017-10-23T02:25:52.757Z,8.81
2017-10-23T02:26:52.450Z,8.85
2017-10-23T02:27:52.796Z,8.84
2017-10-23T02:28:52.480Z,8.92
2017-10-23T02:29:52.490Z,8.82
2017-10-23T02:30:52.524Z,8.94
2017-10-23T02:31:52.525Z,9
2017-10-23T02:32:52.536Z,8.81
2017-10-23T02:33:52.565Z,8.82
2017-10-23T02:34:52.893Z,8.79
2017-10-23T02:35:52.602Z,8.89
2017-10-23T02:36:52.612Z,8.94
2017-10-23T02:37:52.625Z,8.92
2017-10-23T02:38:52.665Z,8.88
2017-10-23T02:39:52.658Z,8.78
2017-10-23T02:40:52.727Z,8.82
2017-10-23T02:41:52.694Z,8.99
2017-10-23T02:42:53.396Z,8.99
2017-10-23T02:43:52.930Z,8.94
2017-10-23T02:44:52.750Z,8.97
2017-10-23T02:45:53.097Z,8.94
2017-10-23T02:46:52.780Z,8.97
2017-10-23T02:47:52.799Z,9.1
2017-10-23T02:48:52.827Z,9
2017-10-23T02:49:52.827Z,9.03
2017-10-23T02:50:52.864Z,8.79
2017-10-23T02:51:52.864Z,8.81
2017-10-23T02:52:52.916Z,8.85
2017-10-23T02:53:52.922Z,8.82
2017-10-23T02:54:52.919Z,8.88
2017-10-23T02:55:53.316Z,8.78
2017-10-23T02:56:52.961Z,8.78
2017-10-23T02:57:52.968Z,8.71
2017-10-23T02:58:52.997Z,8.69
2017-10-23T02:59:53.011Z,8.63
2017-10-23T03:00:53.022Z,8.64
2017-10-23T03:01:53.039Z,8.81
2017-10-23T03:02:53.376Z,8.81
2017-10-23T03:03:53.074Z,8.79
2017-10-23T03:04:53.088Z,8.79
2017-10-23T03:05:53.108Z,8.87
2017-10-23T03:06:53.121Z,8.76
2017-10-23T03:07:53.463Z,8.82
2017-10-23T03:08:53.163Z,8.81
2017-10-23T03:09:53.182Z,8.73
2017-10-23T03:10:53.193Z,8.73
2017-10-23T03:11:53.544Z,8.73
2017-10-23T03:12:53.231Z,8.7
2017-10-23T03:13:53.255Z,8.7
2017-10-23T03:14:53.264Z,8.69
2017-10-23T03:15:53.607Z,8.67
2017-10-23T03:16:53.303Z,8.66
2017-10-23T03:17:53.332Z,8.73
2017-10-23T03:18:53.338Z,8.82
2017-10-23T03:19:53.345Z,8.94
2017-10-23T03:20:53.364Z,8.81
2017-10-23T03:21:53.382Z,8.82
2017-10-23T03:22:53.720Z,8.74
2017-10-23T03:23:53.410Z,8.78
2017-10-23T03:24:53.430Z,8.81
2017-10-23T03:25:53.447Z,8.84
2017-10-23T03:26:53.470Z,8.74
2017-10-23T03:27:53.538Z,8.85
2017-10-23T03:28:53.501Z,8.82
2017-10-23T03:29:53.539Z,8.71
2017-10-23T03:30:53.532Z,8.84
2017-10-23T03:31:53.554Z,8.79
2017-10-23T03:32:53.567Z,8.91
2017-10-23T03:33:53.588Z,9.1
2017-10-23T03:34:53.603Z,8.97
2017-10-23T03:35:53.947Z,8.95
2017-10-23T03:36:53.644Z,8.82
2017-10-23T03:37:53.661Z,8.79
2017-10-23T03:38:53.673Z,8.82
2017-10-23T03:39:53.693Z,8.92
2017-10-23T03:40:53.703Z,8.87
2017-10-23T03:41:53.719Z,8.82
2017-10-23T03:42:53.753Z,8.78
2017-10-23T03:43:54.082Z,8.95
2017-10-23T03:44:54.769Z,8.97
2017-10-23T03:45:54.114Z,8.85
2017-10-23T03:46:54.184Z,8.81
2017-10-23T03:47:53.828Z,8.82
2017-10-23T03:48:53.844Z,8.76
2017-10-23T03:49:53.863Z,8.84
2017-10-23T03:50:53.880Z,8.79
2017-10-23T03:51:53.892Z,8.82
2017-10-23T03:52:53.909Z,8.84
2017-10-23T03:53:53.937Z,8.79
2017-10-23T03:54:53.944Z,8.82
2017-10-23T03:55:53.974Z,8.73
2017-10-23T03:56:53.983Z,8.73
2017-10-23T03:57:54.340Z,8.81
2017-10-23T03:58:54.347Z,8.84
2017-10-23T03:59:54.369Z,8.88
2017-10-23T04:00:54.433Z,9
2017-10-23T04:01:54.147Z,8.79
2017-10-23T04:02:54.749Z,8.85
2017-10-23T04:03:54.670Z,8.97
2017-10-23T04:04:54.124Z,8.99
2017-10-23T04:05:54.138Z,8.91
2017-10-23T04:06:54.172Z,9
2017-10-23T04:07:54.169Z,9.08
2017-10-23T04:08:54.194Z,8.95
2017-10-23T04:09:54.200Z,8.97
2017-10-23T04:10:54.216Z,8.95
2017-10-23T04:11:54.238Z,8.85
2017-10-23T04:12:54.587Z,8.76
2017-10-23T04:13:54.594Z,8.78
2017-10-23T04:14:54.283Z,8.78
2017-10-23T04:15:54.305Z,8.84
2017-10-23T04:16:54.322Z,8.76
2017-10-23T04:17:54.339Z,8.82
2017-10-23T04:18:54.400Z,8.79
2017-10-23T04:19:54.369Z,8.81
2017-10-23T04:20:54.392Z,8.78
2017-10-23T04:21:54.408Z,8.84
2017-10-23T04:22:54.418Z,8.94
2017-10-23T04:23:54.438Z,8.66
2017-10-23T04:24:54.461Z,8.76
2017-10-23T04:25:54.488Z,8.91
2017-10-23T04:26:54.506Z,8.64
2017-10-23T04:27:54.513Z,8.78
2017-10-23T04:28:54.530Z,8.76
2017-10-23T04:29:54.565Z,8.99
2017-10-23T04:30:54.568Z,9.04
2017-10-23T04:31:54.603Z,9.03
2017-10-23T04:32:54.597Z,9.1
2017-10-23T04:33:54.671Z,8.94
2017-10-23T04:34:54.962Z,8.97
2017-10-23T04:35:54.651Z,8.87
2017-10-23T04:36:54.673Z,8.76
2017-10-23T04:37:55.004Z,8.99
2017-10-23T04:38:54.700Z,8.99
2017-10-23T04:39:54.718Z,8.81
2017-10-23T04:40:54.736Z,8.79
2017-10-23T04:41:54.754Z,9.02
2017-10-23T04:42:54.769Z,8.95
2017-10-23T04:43:54.811Z,8.79
2017-10-23T04:44:54.805Z,8.84
2017-10-23T04:45:54.816Z,8.78
2017-10-23T04:46:54.845Z,8.82
2017-10-23T04:47:54.854Z,8.97
2017-10-23T04:48:54.933Z,9.02
2017-10-23T04:49:54.893Z,9.08
2017-10-23T04:50:54.926Z,9.11
2017-10-23T04:51:54.935Z,9.08
2017-10-23T04:52:54.935Z,8.95
2017-10-23T04:53:54.955Z,8.81
2017-10-23T04:54:55.299Z,8.79
2017-10-23T04:55:54.989Z,8.91
2017-10-23T04:56:55.010Z,8.82
2017-10-23T04:57:55.036Z,8.84
2017-10-23T04:58:55.049Z,8.84
2017-10-23T04:59:55.385Z,8.91
2017-10-23T05:00:55.081Z,8.74
2017-10-23T05:01:55.092Z,8.82
2017-10-23T05:02:55.117Z,8.82
2017-10-23T05:03:55.136Z,8.97
2017-10-23T05:04:55.471Z,8.94
2017-10-23T05:05:55.166Z,8.89
2017-10-23T05:06:55.208Z,8.97
2017-10-23T05:07:55.207Z,9.04
2017-10-23T05:08:55.543Z,8.99
2017-10-23T05:09:55.231Z,8.91
2017-10-23T05:10:55.247Z,8.79
2017-10-23T05:11:55.267Z,8.84
2017-10-23T05:12:55.621Z,8.92
2017-10-23T05:13:55.307Z,8.76
2017-10-23T05:14:55.317Z,8.89
2017-10-23T05:15:55.334Z,8.99
2017-10-23T05:16:55.352Z,8.79
2017-10-23T05:17:55.366Z,8.97
2017-10-23T05:18:55.396Z,8.95
2017-10-23T05:19:55.403Z,8.87
2017-10-23T05:20:55.417Z,8.81
2017-10-23T05:21:55.438Z,8.84
2017-10-23T05:22:55.459Z,8.79
2017-10-23T05:23:55.473Z,8.81
2017-10-23T05:24:55.495Z,8.66
2017-10-23T05:25:55.547Z,8.69
2017-10-23T05:26:55.529Z,8.79
2017-10-23T05:27:55.539Z,8.84
2017-10-23T05:28:55.897Z,8.81
2017-10-23T05:29:55.574Z,8.85
2017-10-23T05:30:55.598Z,8.79
2017-10-23T05:31:55.609Z,8.87
2017-10-23T05:32:55.626Z,8.88
2017-10-23T05:33:55.645Z,8.95
2017-10-23T05:34:55.659Z,8.82
2017-10-23T05:35:55.999Z,8.81
2017-10-23T05:36:56.025Z,8.78
2017-10-23T05:37:55.706Z,8.84
2017-10-23T05:38:55.727Z,8.81
2017-10-23T05:39:55.757Z,8.97
2017-10-23T05:40:55.765Z,8.89
2017-10-23T05:41:56.148Z,8.99
2017-10-23T05:42:55.798Z,9.03
2017-10-23T05:43:55.810Z,9.04
2017-10-23T05:44:56.165Z,8.97
2017-10-23T05:45:56.175Z,9.02
2017-10-23T05:46:55.858Z,8.95
2017-10-23T05:47:55.878Z,9.1
2017-10-23T05:48:55.896Z,9.04
2017-10-23T05:49:55.922Z,8.95
2017-10-23T05:50:55.946Z,9.06
2017-10-23T05:51:55.953Z,9.16
2017-10-23T05:52:55.967Z,9.16
2017-10-23T05:53:56.036Z,9.18
2017-10-23T05:54:56.335Z,9.08
2017-10-23T05:55:56.026Z,9.1
2017-10-23T05:56:56.035Z,9.13
2017-10-23T05:57:56.060Z,9.08
2017-10-23T05:58:56.132Z,9.1
2017-10-23T05:59:56.087Z,9.03
2017-10-23T06:00:56.112Z,8.95
2017-10-23T06:01:56.128Z,8.88
2017-10-23T06:02:56.143Z,8.79
2017-10-23T06:03:56.493Z,8.84
2017-10-23T06:04:56.177Z,8.74
2017-10-23T06:05:56.515Z,8.99
2017-10-23T06:06:56.205Z,8.89
2017-10-23T06:07:56.230Z,8.82
2017-10-23T06:08:56.238Z,8.81
2017-10-23T06:09:56.263Z,8.73
2017-10-23T06:10:56.278Z,8.84
2017-10-23T06:11:56.306Z,8.69
2017-10-23T06:12:56.638Z,8.7
2017-10-23T06:13:56.330Z,8.66
2017-10-23T06:14:56.342Z,8.81
2017-10-23T06:15:56.368Z,8.78
2017-10-23T06:16:56.383Z,8.84
2017-10-23T06:17:56.451Z,8.81
2017-10-23T06:18:56.418Z,8.79
2017-10-23T06:19:56.437Z,8.76
2017-10-23T06:20:56.784Z,8.67
2017-10-23T06:21:56.802Z,8.6
2017-10-23T06:22:56.497Z,8.78
2017-10-23T06:23:56.504Z,8.66
2017-10-23T06:24:56.551Z,8.61
2017-10-23T06:25:56.534Z,8.7
2017-10-23T06:26:56.558Z,8.69
2017-10-23T06:27:56.566Z,8.7
2017-10-23T06:28:56.596Z,8.66
2017-10-23T06:29:56.622Z,8.7
2017-10-23T06:30:56.621Z,8.58
2017-10-23T06:31:56.638Z,8.7
2017-10-23T06:32:56.652Z,8.69
2017-10-23T06:33:56.679Z,8.66
2017-10-23T06:34:57.042Z,8.66
2017-10-23T06:35:57.033Z,8.69
2017-10-23T06:36:56.724Z,8.69
2017-10-23T06:37:56.742Z,8.74
2017-10-23T06:38:57.090Z,8.79
2017-10-23T06:39:56.776Z,8.81
2017-10-23T06:40:56.797Z,8.7
2017-10-23T06:41:56.814Z,8.84
2017-10-23T06:42:56.841Z,8.79
2017-10-23T06:43:56.845Z,8.76
2017-10-23T06:44:56.858Z,8.69
2017-10-23T06:45:56.875Z,8.76
2017-10-23T06:46:56.898Z,8.78
2017-10-23T06:47:56.917Z,8.85
2017-10-23T06:48:56.927Z,8.92
2017-10-23T06:49:56.949Z,8.89
2017-10-23T06:50:56.965Z,8.81
2017-10-23T06:51:56.979Z,8.85
2017-10-23T06:52:57.002Z,8.81
2017-10-23T06:53:57.336Z,8.81
2017-10-23T06:54:57.040Z,8.88
2017-10-23T06:55:57.049Z,8.69
2017-10-23T06:56:57.071Z,8.82
2017-10-23T06:57:57.110Z,8.79
2017-10-23T06:58:57.102Z,8.69
2017-10-23T06:59:57.453Z,8.88
2017-10-23T07:00:57.132Z,8.81
2017-10-23T07:01:57.153Z,8.69
2017-10-23T07:02:57.171Z,8.71
2017-10-23T07:03:57.196Z,8.92
2017-10-23T07:04:57.207Z,8.89
2017-10-23T07:05:57.549Z,8.88
2017-10-23T07:06:57.248Z,8.92
2017-10-23T07:07:57.261Z,8.84
2017-10-23T07:08:57.602Z,9.04
2017-10-23T07:09:57.287Z,8.99
2017-10-23T07:10:57.365Z,9
2017-10-23T07:11:57.661Z,8.95
2017-10-23T07:12:57.722Z,8.97
2017-10-23T07:13:57.709Z,8.94
2017-10-23T07:14:57.384Z,8.94
2017-10-23T07:15:57.395Z,8.84
2017-10-23T07:16:57.417Z,8.79
2017-10-23T07:17:57.428Z,8.88
2017-10-23T07:18:57.454Z,8.95
2017-10-23T07:19:57.475Z,9
2017-10-23T07:20:57.486Z,9.08
2017-10-23T07:21:57.510Z,9.06
2017-10-23T07:22:57.524Z,8.95
2017-10-23T07:23:57.879Z,9.03
2017-10-23T07:24:57.922Z,8.97
2017-10-23T07:25:57.569Z,8.78
2017-10-23T07:26:57.594Z,9.02
2017-10-23T07:27:57.615Z,8.76
2017-10-23T07:28:57.634Z,8.76
2017-10-23T07:29:57.987Z,8.81
2017-10-23T07:30:57.658Z,8.82
2017-10-23T07:31:57.671Z,9
2017-10-23T07:32:58.456Z,8.97
2017-10-23T07:33:57.712Z,8.94
2017-10-23T07:34:57.748Z,8.92
2017-10-23T07:35:58.066Z,9.1
2017-10-23T07:36:58.089Z,9.16
2017-10-23T07:37:58.101Z,9.29
2017-10-23T07:38:57.799Z,9.36
2017-10-23T07:39:57.813Z,9.22
2017-10-23T07:40:58.151Z,9.31
2017-10-23T07:41:57.844Z,9.23
2017-10-23T07:42:57.866Z,9.02
2017-10-23T07:43:57.885Z,9.06
2017-10-23T07:44:57.899Z,9.08
2017-10-23T07:45:57.923Z,9.13
2017-10-23T07:46:57.933Z,9.13
2017-10-23T07:47:57.983Z,9.28
2017-10-23T07:48:58.001Z,9.39
2017-10-23T07:49:57.985Z,9.4
2017-10-23T07:50:58.005Z,9.4
2017-10-23T07:51:58.016Z,9.54
2017-10-23T07:52:58.045Z,9.54
2017-10-23T07:53:58.057Z,9.51
2017-10-23T07:54:58.078Z,9.41
2017-10-23T07:55:58.097Z,9.39
2017-10-23T07:56:58.117Z,9.4
2017-10-23T07:57:58.124Z,9.34
2017-10-23T07:58:58.148Z,9.39
2017-10-23T07:59:58.159Z,9.4
2017-10-23T08:00:58.174Z,9.32
2017-10-23T08:01:58.193Z,9.4
2017-10-23T08:02:58.232Z,9.18
2017-10-23T08:03:58.578Z,9
2017-10-23T08:04:58.245Z,9.06
2017-10-23T08:05:58.612Z,9.28
2017-10-23T08:06:58.300Z,9.37
2017-10-23T08:07:58.304Z,9.19
2017-10-23T08:08:58.644Z,9.16
2017-10-23T08:09:58.336Z,9.08
2017-10-23T08:10:58.357Z,9.11
2017-10-23T08:11:58.706Z,9.23
2017-10-23T08:12:58.390Z,9.34
2017-10-23T08:13:58.413Z,9.29
2017-10-23T08:14:58.422Z,9.28
2017-10-23T08:15:58.780Z,9.32
2017-10-23T08:16:58.463Z,9.26
2017-10-23T08:17:58.479Z,9.36
2017-10-23T08:18:58.493Z,9.13
2017-10-23T08:19:58.511Z,9.14
2017-10-23T08:20:58.532Z,9.16
2017-10-23T08:21:58.548Z,9.34
2017-10-23T08:22:58.569Z,9.18
2017-10-23T08:23:58.583Z,9.34
2017-10-23T08:24:58.597Z,9.43
2017-10-23T08:25:58.646Z,9.39
2017-10-23T08:26:58.640Z,9.4
2017-10-23T08:27:59.346Z,9.34
2017-10-23T08:28:58.668Z,9.41
2017-10-23T08:29:58.693Z,9.4
2017-10-23T08:30:58.705Z,9.41
2017-10-23T08:31:58.723Z,9.4
2017-10-23T08:32:58.742Z,9.23
2017-10-23T08:33:58.769Z,9.36
2017-10-23T08:34:58.781Z,9.29
2017-10-23T08:35:59.138Z,9.32
2017-10-23T08:36:58.832Z,9.41
2017-10-23T16:44:54.643Z,9.99
2017-10-23T16:45:35.077Z,10.02
2017-10-23T16:46:35.095Z,9.95
2017-10-23T16:47:35.115Z,9.94
2017-10-23T16:48:34.809Z,10.05
2017-10-23T16:49:35.154Z,10.07
2017-10-23T16:50:35.494Z,10.04
2017-10-23T16:51:35.182Z,10.13
2017-10-23T16:52:35.530Z,10.1
2017-10-23T16:53:35.540Z,10.05
2017-10-23T16:54:35.236Z,10.15
2017-10-23T16:55:35.591Z,10.1
2017-10-23T16:56:35.273Z,10.04
2017-10-23T16:57:35.291Z,10.04
2017-10-23T16:58:35.309Z,10.04
2017-10-23T16:59:35.332Z,10.07
2017-10-23T17:00:35.726Z,10.16
2017-10-23T17:01:35.684Z,10.1
2017-10-23T17:02:35.709Z,10.07
2017-10-23T17:03:35.416Z,10.05
2017-10-23T17:04:35.751Z,10.16
2017-10-23T17:05:35.751Z,10.16
2017-10-23T17:06:35.450Z,10.16
2017-10-23T17:07:35.792Z,10.22
2017-10-23T17:08:35.818Z,10.1
2017-10-23T17:09:35.505Z,10.26
2017-10-23T17:10:35.573Z,10.33
2017-10-23T17:11:35.540Z,10.31
2017-10-23T17:12:35.236Z,10.3
2017-10-23T17:13:35.572Z,10.31
2017-10-23T17:14:35.272Z,10.05
2017-10-23T17:15:35.611Z,10.07
2017-10-23T17:16:35.629Z,10.15
2017-10-23T17:17:35.648Z,10.17
2017-10-23T17:18:35.991Z,10.37
2017-10-23T17:19:35.362Z,10.38
2017-10-23T17:20:36.023Z,10.46
2017-10-23T17:21:36.055Z,10.44
2017-10-23T17:22:35.738Z,10.49
2017-10-23T17:23:35.758Z,10.49
2017-10-23T17:24:35.785Z,10.44
2017-10-23T17:25:35.793Z,10.3
2017-10-23T17:26:36.150Z,10.28
2017-10-23T17:27:36.152Z,10.26
2017-10-23T17:28:35.846Z,10.26
2017-10-23T17:29:35.596Z,10.3
2017-10-23T17:30:35.882Z,10.15
2017-10-23T17:31:35.898Z,10.2
2017-10-23T17:32:35.931Z,10.23
2017-10-23T17:33:36.268Z,10.07
2017-10-23T17:34:36.279Z,9.95
2017-10-23T17:35:35.974Z,10.13
2017-10-23T17:36:35.997Z,10.1
2017-10-23T17:37:36.022Z,10.05
2017-10-23T17:38:36.351Z,10.01
2017-10-23T17:39:36.368Z,10.04
2017-10-23T17:40:36.075Z,10.01
2017-10-23T17:41:36.100Z,9.97
2017-10-23T17:42:36.099Z,9.99
2017-10-23T17:43:36.441Z,10.05
2017-10-23T17:44:36.509Z,10.31
2017-10-23T17:45:36.155Z,10.19
2017-10-23T17:46:36.181Z,10.22
2017-10-23T17:47:36.185Z,10.16
2017-10-23T17:48:36.525Z,10.22
2017-10-23T17:49:36.223Z,10.15
2017-10-23T17:50:36.250Z,10.17
2017-10-23T17:51:36.260Z,10.16
2017-10-23T17:52:36.277Z,10.12
2017-10-23T17:53:36.296Z,10.17
2017-10-23T17:54:36.642Z,10.05
2017-10-23T17:55:36.338Z,10.17
2017-10-23T17:56:36.028Z,10.04
2017-10-23T17:57:36.048Z,10.12
2017-10-23T17:58:36.384Z,10.09
2017-10-23T17:59:36.076Z,10.1
2017-10-23T18:00:36.742Z,10.04
2017-10-23T18:01:36.761Z,9.98
2017-10-23T18:02:36.780Z,10.1
2017-10-23T18:03:36.152Z,10.05
2017-10-23T18:04:36.491Z,10.09
2017-10-23T18:05:36.510Z,10.07
2017-10-23T18:06:36.206Z,10.15
2017-10-23T18:07:36.868Z,10.1
2017-10-23T18:08:36.890Z,10.16
2017-10-23T18:09:36.580Z,10.15
2017-10-23T18:10:36.599Z,10.05
2017-10-23T18:11:36.621Z,10.1
2017-10-23T18:12:36.632Z,9.97
2017-10-23T18:13:36.330Z,9.94
2017-10-23T18:14:36.993Z,10.12
2017-10-23T18:15:36.395Z,10.1
2017-10-23T18:16:36.703Z,9.97
2017-10-23T18:17:37.045Z,10.09
2017-10-23T18:18:36.739Z,10.05
2017-10-23T18:19:36.810Z,10.04
2017-10-23T18:20:37.100Z,10.07
2017-10-23T18:21:37.112Z,10.05
2017-10-23T18:22:36.819Z,10.07
2017-10-23T18:23:36.832Z,10.09
2017-10-23T18:24:36.850Z,10.01
2017-10-23T18:25:36.862Z,10.04
2017-10-23T18:26:36.559Z,10.04
2017-10-23T18:27:36.901Z,9.99
2017-10-23T18:28:36.604Z,10.02
2017-10-23T18:29:37.264Z,10.02
2017-10-23T18:30:36.632Z,10.05
2017-10-23T18:31:36.649Z,10.1
2017-10-23T18:32:36.987Z,10.04
2017-10-23T18:33:36.688Z,10.01
2017-10-23T18:34:37.022Z,9.98
2017-10-23T18:35:37.040Z,10.01
2017-10-23T18:36:37.104Z,9.95
2017-10-23T18:37:37.398Z,9.86
2017-10-23T18:38:37.423Z,9.92
2017-10-23T18:39:37.111Z,10.01
2017-10-23T18:40:36.804Z,10.09
2017-10-23T18:41:37.144Z,10.02
2017-10-23T18:42:37.484Z,10.05
2017-10-23T18:43:37.189Z,9.92
2017-10-23T18:44:37.566Z,9.99
2017-10-23T18:45:36.892Z,10.05
2017-10-23T18:46:37.228Z,10.01
2017-10-23T18:47:37.582Z,10.01
2017-10-23T18:48:37.268Z,10.01
2017-10-23T18:49:37.285Z,10.1
2017-10-23T18:50:37.303Z,10.02
2017-10-23T18:51:37.321Z,9.84
2017-10-23T18:52:37.666Z,9.8
2017-10-23T18:53:37.038Z,9.82
2017-10-23T18:54:37.374Z,9.91
2017-10-23T18:55:37.507Z,9.86
2017-10-23T18:56:37.411Z,9.91
2017-10-23T18:57:37.431Z,9.83
2017-10-23T18:58:37.447Z,9.89
2017-10-23T18:59:37.516Z,9.94
2017-10-23T19:00:37.485Z,9.95
2017-10-23T19:01:37.500Z,9.99
2017-10-23T19:02:37.194Z,10.12
2017-10-23T19:03:37.533Z,9.99
2017-10-23T19:04:37.550Z,9.92
2017-10-23T19:05:37.564Z,10.01
2017-10-23T19:06:37.916Z,9.95
2017-10-23T19:07:37.601Z,9.98
2017-10-23T19:08:37.618Z,10.01
2017-10-23T19:09:37.637Z,10.01
2017-10-23T19:10:37.975Z,9.99
2017-10-23T19:11:37.988Z,9.98
2017-10-23T19:12:37.368Z,10.02
2017-10-23T19:13:38.027Z,10.07
2017-10-23T19:14:37.727Z,10.02
2017-10-23T19:15:38.077Z,10.1
2017-10-23T19:16:37.759Z,9.99
2017-10-23T19:17:38.102Z,10.07
2017-10-23T19:18:37.470Z,10.02
2017-10-23T19:19:38.134Z,10.05
2017-10-23T19:20:38.500Z,10.04
2017-10-23T19:21:38.189Z,10.07
2017-10-23T19:22:37.864Z,10.07
2017-10-23T19:23:37.890Z,10.02
2017-10-23T19:24:38.232Z,10.17
2017-10-23T19:25:38.242Z,10.09
2017-10-23T19:26:37.939Z,10.02
2017-10-23T19:27:37.954Z,10.01
2017-10-23T19:28:37.992Z,9.94
2017-10-23T19:29:38.310Z,10.02
2017-10-23T19:30:38.377Z,9.95
2017-10-23T19:31:38.346Z,10.07
2017-10-23T19:32:38.372Z,10.04
2017-10-23T19:33:38.381Z,10.04
2017-10-23T19:34:37.757Z,9.98
2017-10-23T19:35:38.433Z,10.04
2017-10-23T19:36:38.113Z,9.97
2017-10-23T19:37:38.453Z,9.99
2017-10-23T19:38:37.823Z,10.01
2017-10-23T19:39:38.502Z,10.04
2017-10-23T19:40:38.506Z,10.07
2017-10-23T19:41:38.521Z,10.04
2017-10-23T19:42:38.226Z,9.92
2017-10-23T19:43:38.238Z,10.05
2017-10-23T19:44:38.575Z,10.09
2017-10-23T19:45:38.594Z,10.05
2017-10-23T19:46:38.287Z,10.1
2017-10-23T19:47:38.310Z,10.04
2017-10-23T19:48:38.374Z,9.97
2017-10-23T19:49:38.019Z,9.94
2017-10-23T19:50:38.246Z,10.04
2017-10-23T19:51:38.694Z,10.04
2017-10-23T19:52:38.711Z,9.84
2017-10-23T19:53:38.410Z,9.83
2017-10-23T19:54:38.745Z,9.8
2017-10-23T19:55:38.764Z,9.98
2017-10-23T19:56:38.460Z,10.01
2017-10-23T19:57:38.815Z,10.04
2017-10-23T19:58:38.224Z,10.04
2017-10-23T19:59:38.842Z,9.92
2017-10-23T20:00:38.539Z,9.84
2017-10-23T20:01:38.557Z,9.98
2017-10-23T20:02:38.578Z,9.91
2017-10-23T20:03:38.961Z,9.89
2017-10-23T20:04:38.607Z,9.91
2017-10-23T20:05:38.624Z,9.84
2017-10-23T20:06:38.966Z,9.84
2017-10-23T20:07:38.338Z,9.82
2017-10-23T20:08:38.676Z,9.83
2017-10-23T20:09:39.017Z,9.82
2017-10-23T20:10:38.712Z,9.97
2017-10-23T20:11:38.729Z,9.99
2017-10-23T20:12:39.068Z,10.01
2017-10-23T20:13:38.458Z,9.92
2017-10-23T20:14:38.461Z,9.92
2017-10-23T20:15:39.126Z,9.84
2017-10-23T20:16:38.818Z,9.8
2017-10-23T20:17:38.841Z,9.92
2017-10-23T20:18:38.850Z,9.82
2017-10-23T20:19:38.549Z,9.95
2017-10-23T20:20:38.899Z,9.79
2017-10-23T20:21:38.916Z,10.01
2017-10-23T20:22:39.243Z,10.02
2017-10-23T20:23:38.938Z,10.02
2017-10-23T20:24:38.965Z,10.07
2017-10-23T20:25:38.987Z,9.91
2017-10-23T20:26:38.992Z,9.98
2017-10-23T20:27:39.332Z,9.83
2017-10-23T20:28:38.707Z,9.87
2017-10-23T20:29:39.045Z,9.91
2017-10-23T20:30:39.060Z,9.99
2017-10-23T20:31:39.418Z,9.99
2017-10-23T20:32:39.438Z,9.92
2017-10-23T20:33:39.440Z,9.83
2017-10-23T20:34:39.131Z,9.82
2017-10-23T20:35:39.153Z,9.84
2017-10-23T20:36:38.859Z,9.83
2017-10-23T20:37:39.187Z,9.91
2017-10-23T20:38:39.538Z,9.89
2017-10-23T20:39:38.904Z,9.89
2017-10-23T20:40:38.920Z,10.04
2017-10-23T20:41:39.585Z,10.02
2017-10-23T20:42:39.281Z,9.92
2017-10-23T20:43:39.300Z,9.97
2017-10-23T20:44:39.645Z,9.91
2017-10-23T20:45:39.654Z,9.95
2017-10-23T20:46:39.347Z,9.98
2017-10-23T20:47:39.362Z,9.97
2017-10-23T20:48:39.383Z,9.95
2017-10-23T20:49:39.402Z,9.91
2017-10-23T20:50:39.421Z,9.95
2017-10-23T20:51:39.117Z,9.98
2017-10-23T20:52:39.783Z,9.8
2017-10-23T20:53:39.477Z,9.91
2017-10-23T20:54:39.495Z,9.91
2017-10-23T20:55:39.514Z,10.05
2017-10-23T20:56:39.527Z,9.98
2017-10-23T20:57:39.870Z,10.01
2017-10-23T20:58:39.559Z,10.19
2017-10-23T20:59:39.587Z,10.01
2017-10-23T21:00:39.929Z,9.99
2017-10-23T21:01:39.621Z,10.04
2017-10-23T21:02:39.631Z,9.99
2017-10-23T21:03:39.653Z,9.91
2017-10-23T21:04:39.672Z,9.84
2017-10-23T21:05:40.025Z,9.94
2017-10-23T21:06:39.705Z,9.84
2017-10-23T21:07:39.722Z,9.87
2017-10-23T21:08:39.417Z,9.91
2017-10-23T21:09:39.757Z,9.91
2017-10-23T21:10:39.771Z,9.99
2017-10-23T21:11:39.789Z,10.02
2017-10-23T21:12:39.813Z,10.01
2017-10-23T21:13:39.824Z,9.92
2017-10-23T21:14:39.847Z,10.01
2017-10-23T21:15:39.864Z,10.01
2017-10-23T21:16:39.876Z,9.95
2017-10-23T21:17:39.948Z,10.02
2017-10-23T21:18:39.590Z,9.97
2017-10-23T21:19:40.258Z,10.01
2017-10-23T21:20:39.949Z,9.99
2017-10-23T21:21:40.288Z,9.95
2017-10-23T21:22:40.309Z,9.98
2017-10-23T21:23:40.336Z,9.91